sensor_id;sensor_type;location;lat;lon;timestamp;P1;durP1;ratioP1;P2;durP2;ratioP2
54897;SDS011;40800;52.704;6.398;2023-05-14T00:02:19;25.42;;;23.10;;
54897;SDS011;40800;52.704;6.398;2023-05-14T00:04:45;26.20;;;23.83;;
54897;SDS011;40800;52.704;6.398;2023-05-14T00:07:10;26.15;;;23.50;;
54897;SDS011;40800;52.704;6.398;2023-05-14T00:09:36;25.52;;;23.23;;
54897;SDS011;40800;52.704;6.398;2023-05-14T00:12:02;27.10;;;24.67;;
54897;SDS011;40800;52.704;6.398;2023-05-14T00:14:27;26.33;;;23.95;;
54897;SDS011;40800;52.704;6.398;2023-05-14T00:16:53;26.77;;;24.45;;
54897;SDS011;40800;52.704;6.398;2023-05-14T00:19:19;27.85;;;25.10;;
54897;SDS011;40800;52.704;6.398;2023-05-14T00:21:45;26.30;;;24.00;;
54897;SDS011;40800;52.704;6.398;2023-05-14T00:24:12;27.65;;;25.15;;
54897;SDS011;40800;52.704;6.398;2023-05-14T00:26:37;27.20;;;24.85;;
54897;SDS011;40800;52.704;6.398;2023-05-14T00:29:03;27.42;;;25.02;;
54897;SDS011;40800;52.704;6.398;2023-05-14T00:31:28;27.67;;;25.33;;
54897;SDS011;40800;52.704;6.398;2023-05-14T00:33:54;27.80;;;25.23;;
54897;SDS011;40800;52.704;6.398;2023-05-14T00:36:20;28.52;;;25.85;;
54897;SDS011;40800;52.704;6.398;2023-05-14T00:38:45;28.77;;;26.33;;
54897;SDS011;40800;52.704;6.398;2023-05-14T00:41:11;28.27;;;25.80;;
54897;SDS011;40800;52.704;6.398;2023-05-14T00:43:37;29.35;;;26.85;;
54897;SDS011;40800;52.704;6.398;2023-05-14T00:46:02;28.80;;;26.42;;
54897;SDS011;40800;52.704;6.398;2023-05-14T00:48:28;28.80;;;26.30;;
54897;SDS011;40800;52.704;6.398;2023-05-14T00:50:54;27.27;;;25.08;;
54897;SDS011;40800;52.704;6.398;2023-05-14T00:53:20;30.15;;;27.30;;
54897;SDS011;40800;52.704;6.398;2023-05-14T00:55:45;29.05;;;26.60;;
54897;SDS011;40800;52.704;6.398;2023-05-14T00:58:13;30.13;;;27.48;;
54897;SDS011;40800;52.704;6.398;2023-05-14T01:00:39;29.30;;;26.70;;
54897;SDS011;40800;52.704;6.398;2023-05-14T01:03:05;28.63;;;26.02;;
54897;SDS011;40800;52.704;6.398;2023-05-14T01:05:38;29.65;;;26.63;;
54897;SDS011;40800;52.704;6.398;2023-05-14T01:10:57;30.48;;;27.63;;
54897;SDS011;40800;52.704;6.398;2023-05-14T01:13:32;30.23;;;27.73;;
54897;SDS011;40800;52.704;6.398;2023-05-14T01:16:05;29.42;;;26.83;;
54897;SDS011;40800;52.704;6.398;2023-05-14T01:18:36;29.10;;;26.80;;
54897;SDS011;40800;52.704;6.398;2023-05-14T01:21:02;31.13;;;28.63;;
54897;SDS011;40800;52.704;6.398;2023-05-14T01:23:28;31.73;;;29.10;;
54897;SDS011;40800;52.704;6.398;2023-05-14T01:25:54;30.50;;;28.10;;
54897;SDS011;40800;52.704;6.398;2023-05-14T01:28:22;30.63;;;28.02;;
54897;SDS011;40800;52.704;6.398;2023-05-14T01:30:56;30.63;;;27.85;;
54897;SDS011;40800;52.704;6.398;2023-05-14T01:33:35;30.67;;;28.45;;
54897;SDS011;40800;52.704;6.398;2023-05-14T01:36:04;31.98;;;29.40;;
54897;SDS011;40800;52.704;6.398;2023-05-14T01:38:30;33.00;;;30.25;;
54897;SDS011;40800;52.704;6.398;2023-05-14T01:40:58;32.72;;;29.90;;
54897;SDS011;40800;52.704;6.398;2023-05-14T01:43:24;30.45;;;27.95;;
54897;SDS011;40800;52.704;6.398;2023-05-14T01:45:51;30.23;;;27.60;;
54897;SDS011;40800;52.704;6.398;2023-05-14T01:48:16;29.98;;;27.77;;
54897;SDS011;40800;52.704;6.398;2023-05-14T01:50:42;32.40;;;29.77;;
54897;SDS011;40800;52.704;6.398;2023-05-14T01:53:07;31.70;;;29.25;;
54897;SDS011;40800;52.704;6.398;2023-05-14T01:55:33;30.98;;;28.60;;
54897;SDS011;40800;52.704;6.398;2023-05-14T01:57:58;30.27;;;27.98;;
54897;SDS011;40800;52.704;6.398;2023-05-14T02:00:24;31.35;;;29.08;;
54897;SDS011;40800;52.704;6.398;2023-05-14T02:02:50;31.08;;;28.67;;
54897;SDS011;40800;52.704;6.398;2023-05-14T02:05:16;30.85;;;28.70;;
54897;SDS011;40800;52.704;6.398;2023-05-14T02:07:41;29.88;;;27.67;;
54897;SDS011;40800;52.704;6.398;2023-05-14T02:10:07;29.77;;;27.42;;
54897;SDS011;40800;52.704;6.398;2023-05-14T02:12:33;31.50;;;28.83;;
54897;SDS011;40800;52.704;6.398;2023-05-14T02:14:59;30.92;;;28.35;;
54897;SDS011;40800;52.704;6.398;2023-05-14T02:17:24;30.88;;;28.42;;
54897;SDS011;40800;52.704;6.398;2023-05-14T02:19:50;31.33;;;28.83;;
54897;SDS011;40800;52.704;6.398;2023-05-14T02:22:16;30.95;;;28.50;;
54897;SDS011;40800;52.704;6.398;2023-05-14T02:24:42;30.45;;;28.15;;
54897;SDS011;40800;52.704;6.398;2023-05-14T02:27:07;32.78;;;30.13;;
54897;SDS011;40800;52.704;6.398;2023-05-14T02:29:33;32.28;;;29.65;;
54897;SDS011;40800;52.704;6.398;2023-05-14T02:31:58;32.13;;;29.80;;
54897;SDS011;40800;52.704;6.398;2023-05-14T02:34:24;31.52;;;29.10;;
54897;SDS011;40800;52.704;6.398;2023-05-14T02:36:50;32.20;;;29.83;;
54897;SDS011;40800;52.704;6.398;2023-05-14T02:39:15;30.88;;;28.67;;
54897;SDS011;40800;52.704;6.398;2023-05-14T02:41:41;31.58;;;29.20;;
54897;SDS011;40800;52.704;6.398;2023-05-14T02:44:06;31.42;;;29.02;;
54897;SDS011;40800;52.704;6.398;2023-05-14T02:46:32;32.08;;;29.75;;
54897;SDS011;40800;52.704;6.398;2023-05-14T02:48:57;33.63;;;31.23;;
54897;SDS011;40800;52.704;6.398;2023-05-14T02:51:23;32.58;;;30.17;;
54897;SDS011;40800;52.704;6.398;2023-05-14T02:53:49;33.10;;;30.60;;
54897;SDS011;40800;52.704;6.398;2023-05-14T02:56:14;34.10;;;31.55;;
54897;SDS011;40800;52.704;6.398;2023-05-14T02:58:40;33.30;;;30.20;;
54897;SDS011;40800;52.704;6.398;2023-05-14T03:01:06;34.72;;;31.83;;
54897;SDS011;40800;52.704;6.398;2023-05-14T03:03:32;35.85;;;33.00;;
54897;SDS011;40800;52.704;6.398;2023-05-14T03:05:58;34.72;;;31.95;;
54897;SDS011;40800;52.704;6.398;2023-05-14T03:08:24;33.30;;;30.70;;
54897;SDS011;40800;52.704;6.398;2023-05-14T03:10:49;35.30;;;32.55;;
54897;SDS011;40800;52.704;6.398;2023-05-14T03:13:15;36.42;;;33.42;;
54897;SDS011;40800;52.704;6.398;2023-05-14T03:15:43;37.15;;;33.80;;
54897;SDS011;40800;52.704;6.398;2023-05-14T03:18:09;38.22;;;35.17;;
54897;SDS011;40800;52.704;6.398;2023-05-14T03:20:34;38.22;;;35.22;;
54897;SDS011;40800;52.704;6.398;2023-05-14T03:23:00;38.85;;;35.95;;
54897;SDS011;40800;52.704;6.398;2023-05-14T03:25:26;39.72;;;36.40;;
54897;SDS011;40800;52.704;6.398;2023-05-14T03:27:51;39.90;;;36.88;;
54897;SDS011;40800;52.704;6.398;2023-05-14T03:30:17;42.13;;;39.03;;
54897;SDS011;40800;52.704;6.398;2023-05-14T03:32:43;43.08;;;39.60;;
54897;SDS011;40800;52.704;6.398;2023-05-14T03:35:08;44.13;;;40.90;;
54897;SDS011;40800;52.704;6.398;2023-05-14T03:37:34;44.10;;;39.83;;
54897;SDS011;40800;52.704;6.398;2023-05-14T03:40:00;44.13;;;39.63;;
54897;SDS011;40800;52.704;6.398;2023-05-14T03:42:26;45.20;;;41.25;;
54897;SDS011;40800;52.704;6.398;2023-05-14T03:44:51;45.17;;;40.28;;
54897;SDS011;40800;52.704;6.398;2023-05-14T03:47:17;42.13;;;39.13;;
54897;SDS011;40800;52.704;6.398;2023-05-14T03:49:43;43.13;;;39.92;;
54897;SDS011;40800;52.704;6.398;2023-05-14T03:52:08;46.55;;;43.03;;
54897;SDS011;40800;52.704;6.398;2023-05-14T03:54:34;47.17;;;43.63;;
54897;SDS011;40800;52.704;6.398;2023-05-14T03:57:00;46.95;;;43.72;;
54897;SDS011;40800;52.704;6.398;2023-05-14T03:59:26;42.22;;;39.28;;
54897;SDS011;40800;52.704;6.398;2023-05-14T04:01:52;44.95;;;41.92;;
54897;SDS011;40800;52.704;6.398;2023-05-14T04:04:17;45.22;;;42.13;;
54897;SDS011;40800;52.704;6.398;2023-05-14T04:06:43;46.85;;;43.72;;
54897;SDS011;40800;52.704;6.398;2023-05-14T04:09:09;45.63;;;42.58;;
54897;SDS011;40800;52.704;6.398;2023-05-14T04:11:35;45.63;;;42.53;;
54897;SDS011;40800;52.704;6.398;2023-05-14T04:14:00;45.40;;;42.30;;
54897;SDS011;40800;52.704;6.398;2023-05-14T04:16:26;47.53;;;44.17;;
54897;SDS011;40800;52.704;6.398;2023-05-14T04:18:52;45.42;;;42.22;;
54897;SDS011;40800;52.704;6.398;2023-05-14T04:21:17;45.42;;;42.33;;
54897;SDS011;40800;52.704;6.398;2023-05-14T04:23:43;44.88;;;41.78;;
54897;SDS011;40800;52.704;6.398;2023-05-14T04:26:08;45.17;;;41.97;;
54897;SDS011;40800;52.704;6.398;2023-05-14T04:28:34;44.10;;;41.28;;
54897;SDS011;40800;52.704;6.398;2023-05-14T04:31:00;44.67;;;41.58;;
54897;SDS011;40800;52.704;6.398;2023-05-14T04:33:25;43.47;;;40.58;;
54897;SDS011;40800;52.704;6.398;2023-05-14T04:35:51;41.15;;;38.45;;
54897;SDS011;40800;52.704;6.398;2023-05-14T04:38:17;45.47;;;42.17;;
54897;SDS011;40800;52.704;6.398;2023-05-14T04:40:43;45.40;;;41.83;;
54897;SDS011;40800;52.704;6.398;2023-05-14T04:43:08;43.90;;;40.60;;
54897;SDS011;40800;52.704;6.398;2023-05-14T04:45:34;43.83;;;40.83;;
54897;SDS011;40800;52.704;6.398;2023-05-14T04:48:00;45.38;;;42.30;;
54897;SDS011;40800;52.704;6.398;2023-05-14T04:50:27;45.47;;;42.17;;
54897;SDS011;40800;52.704;6.398;2023-05-14T04:52:52;45.53;;;42.25;;
54897;SDS011;40800;52.704;6.398;2023-05-14T04:57:45;47.05;;;43.60;;
54897;SDS011;40800;52.704;6.398;2023-05-14T05:00:11;45.55;;;42.65;;
54897;SDS011;40800;52.704;6.398;2023-05-14T05:02:37;46.72;;;43.67;;
54897;SDS011;40800;52.704;6.398;2023-05-14T05:05:02;46.67;;;43.40;;
54897;SDS011;40800;52.704;6.398;2023-05-14T05:07:28;48.20;;;44.28;;
54897;SDS011;40800;52.704;6.398;2023-05-14T05:09:54;46.90;;;43.40;;
54897;SDS011;40800;52.704;6.398;2023-05-14T05:12:20;47.10;;;43.42;;
54897;SDS011;40800;52.704;6.398;2023-05-14T05:14:45;46.92;;;43.42;;
54897;SDS011;40800;52.704;6.398;2023-05-14T05:17:11;45.25;;;42.22;;
54897;SDS011;40800;52.704;6.398;2023-05-14T05:19:36;45.50;;;42.05;;
54897;SDS011;40800;52.704;6.398;2023-05-14T05:22:02;45.42;;;42.33;;
54897;SDS011;40800;52.704;6.398;2023-05-14T05:24:27;46.22;;;42.72;;
54897;SDS011;40800;52.704;6.398;2023-05-14T05:26:53;47.60;;;43.97;;
54897;SDS011;40800;52.704;6.398;2023-05-14T05:29:19;46.23;;;42.97;;
54897;SDS011;40800;52.704;6.398;2023-05-14T05:31:46;46.72;;;43.20;;
54897;SDS011;40800;52.704;6.398;2023-05-14T05:34:12;44.20;;;41.45;;
54897;SDS011;40800;52.704;6.398;2023-05-14T05:36:38;46.47;;;43.15;;
54897;SDS011;40800;52.704;6.398;2023-05-14T05:39:03;46.92;;;43.60;;
54897;SDS011;40800;52.704;6.398;2023-05-14T05:41:29;46.42;;;43.13;;
54897;SDS011;40800;52.704;6.398;2023-05-14T05:43:54;47.15;;;43.85;;
54897;SDS011;40800;52.704;6.398;2023-05-14T05:46:20;45.17;;;41.97;;
54897;SDS011;40800;52.704;6.398;2023-05-14T05:48:45;46.78;;;43.08;;
54897;SDS011;40800;52.704;6.398;2023-05-14T05:51:11;46.47;;;42.92;;
54897;SDS011;40800;52.704;6.398;2023-05-14T05:53:37;48.53;;;44.13;;
54897;SDS011;40800;52.704;6.398;2023-05-14T05:56:02;48.30;;;44.78;;
54897;SDS011;40800;52.704;6.398;2023-05-14T05:58:28;47.40;;;44.35;;
54897;SDS011;40800;52.704;6.398;2023-05-14T06:00:53;48.15;;;44.85;;
54897;SDS011;40800;52.704;6.398;2023-05-14T06:03:21;49.30;;;45.45;;
54897;SDS011;40800;52.704;6.398;2023-05-14T06:05:47;49.92;;;46.17;;
54897;SDS011;40800;52.704;6.398;2023-05-14T06:08:12;47.75;;;44.28;;
54897;SDS011;40800;52.704;6.398;2023-05-14T06:10:38;47.95;;;44.63;;
54897;SDS011;40800;52.704;6.398;2023-05-14T06:13:03;48.42;;;44.92;;
54897;SDS011;40800;52.704;6.398;2023-05-14T06:15:29;47.85;;;44.65;;
54897;SDS011;40800;52.704;6.398;2023-05-14T06:17:55;47.78;;;44.33;;
54897;SDS011;40800;52.704;6.398;2023-05-14T06:20:20;48.63;;;45.15;;
54897;SDS011;40800;52.704;6.398;2023-05-14T06:22:46;47.65;;;44.45;;
54897;SDS011;40800;52.704;6.398;2023-05-14T06:25:11;48.10;;;44.65;;
54897;SDS011;40800;52.704;6.398;2023-05-14T06:27:37;48.80;;;45.35;;
54897;SDS011;40800;52.704;6.398;2023-05-14T06:30:03;47.58;;;44.45;;
54897;SDS011;40800;52.704;6.398;2023-05-14T06:32:29;49.90;;;46.35;;
54897;SDS011;40800;52.704;6.398;2023-05-14T06:34:54;48.90;;;45.58;;
54897;SDS011;40800;52.704;6.398;2023-05-14T06:37:20;49.33;;;45.90;;
54897;SDS011;40800;52.704;6.398;2023-05-14T06:39:45;50.45;;;46.95;;
54897;SDS011;40800;52.704;6.398;2023-05-14T06:42:14;50.35;;;46.50;;
54897;SDS011;40800;52.704;6.398;2023-05-14T06:44:40;50.47;;;46.90;;
54897;SDS011;40800;52.704;6.398;2023-05-14T06:47:06;50.80;;;47.10;;
54897;SDS011;40800;52.704;6.398;2023-05-14T06:49:32;51.13;;;47.80;;
54897;SDS011;40800;52.704;6.398;2023-05-14T06:51:58;50.63;;;47.03;;
54897;SDS011;40800;52.704;6.398;2023-05-14T06:54:24;50.45;;;46.78;;
54897;SDS011;40800;52.704;6.398;2023-05-14T06:56:50;50.65;;;46.92;;
54897;SDS011;40800;52.704;6.398;2023-05-14T06:59:15;49.00;;;45.60;;
54897;SDS011;40800;52.704;6.398;2023-05-14T07:01:41;48.25;;;44.90;;
54897;SDS011;40800;52.704;6.398;2023-05-14T07:04:07;46.92;;;43.67;;
54897;SDS011;40800;52.704;6.398;2023-05-14T07:06:32;45.80;;;42.50;;
54897;SDS011;40800;52.704;6.398;2023-05-14T07:08:58;44.75;;;41.50;;
54897;SDS011;40800;52.704;6.398;2023-05-14T07:11:24;47.05;;;43.45;;
54897;SDS011;40800;52.704;6.398;2023-05-14T07:13:50;44.80;;;41.50;;
54897;SDS011;40800;52.704;6.398;2023-05-14T07:16:16;44.88;;;40.92;;
54897;SDS011;40800;52.704;6.398;2023-05-14T07:18:41;42.67;;;39.53;;
54897;SDS011;40800;52.704;6.398;2023-05-14T07:21:07;41.67;;;38.53;;
54897;SDS011;40800;52.704;6.398;2023-05-14T07:23:33;40.55;;;37.63;;
54897;SDS011;40800;52.704;6.398;2023-05-14T07:26:01;40.67;;;37.50;;
54897;SDS011;40800;52.704;6.398;2023-05-14T07:28:26;37.05;;;34.33;;
54897;SDS011;40800;52.704;6.398;2023-05-14T07:30:52;36.20;;;33.47;;
54897;SDS011;40800;52.704;6.398;2023-05-14T07:33:18;35.85;;;33.10;;
54897;SDS011;40800;52.704;6.398;2023-05-14T07:35:43;35.03;;;32.63;;
54897;SDS011;40800;52.704;6.398;2023-05-14T07:38:09;35.40;;;32.88;;
54897;SDS011;40800;52.704;6.398;2023-05-14T07:40:35;34.25;;;31.75;;
54897;SDS011;40800;52.704;6.398;2023-05-14T07:43:00;33.03;;;30.48;;
54897;SDS011;40800;52.704;6.398;2023-05-14T07:45:26;33.50;;;30.73;;
54897;SDS011;40800;52.704;6.398;2023-05-14T07:47:51;33.58;;;30.52;;
54897;SDS011;40800;52.704;6.398;2023-05-14T07:50:17;31.90;;;29.50;;
54897;SDS011;40800;52.704;6.398;2023-05-14T07:52:43;29.70;;;27.48;;
54897;SDS011;40800;52.704;6.398;2023-05-14T07:55:09;29.30;;;27.00;;
54897;SDS011;40800;52.704;6.398;2023-05-14T07:57:36;28.27;;;25.77;;
54897;SDS011;40800;52.704;6.398;2023-05-14T08:00:02;25.80;;;23.88;;
54897;SDS011;40800;52.704;6.398;2023-05-14T08:02:28;26.60;;;24.50;;
54897;SDS011;40800;52.704;6.398;2023-05-14T08:04:54;25.40;;;23.13;;
54897;SDS011;40800;52.704;6.398;2023-05-14T08:07:19;24.48;;;22.30;;
54897;SDS011;40800;52.704;6.398;2023-05-14T08:09:45;24.38;;;21.90;;
54897;SDS011;40800;52.704;6.398;2023-05-14T08:12:11;22.80;;;21.00;;
54897;SDS011;40800;52.704;6.398;2023-05-14T08:14:36;23.75;;;21.60;;
54897;SDS011;40800;52.704;6.398;2023-05-14T08:17:02;21.95;;;19.92;;
54897;SDS011;40800;52.704;6.398;2023-05-14T08:19:28;21.17;;;19.17;;
54897;SDS011;40800;52.704;6.398;2023-05-14T08:21:53;21.55;;;19.58;;
54897;SDS011;40800;52.704;6.398;2023-05-14T08:24:19;19.80;;;17.90;;
54897;SDS011;40800;52.704;6.398;2023-05-14T08:26:44;18.95;;;17.15;;
54897;SDS011;40800;52.704;6.398;2023-05-14T08:29:10;18.23;;;16.38;;
54897;SDS011;40800;52.704;6.398;2023-05-14T08:31:36;16.23;;;14.68;;
54897;SDS011;40800;52.704;6.398;2023-05-14T08:34:01;16.48;;;14.82;;
54897;SDS011;40800;52.704;6.398;2023-05-14T08:36:27;16.88;;;13.45;;
54897;SDS011;40800;52.704;6.398;2023-05-14T08:38:53;16.52;;;14.18;;
54897;SDS011;40800;52.704;6.398;2023-05-14T08:41:18;19.40;;;14.02;;
54897;SDS011;40800;52.704;6.398;2023-05-14T08:46:12;15.13;;;13.57;;
54897;SDS011;40800;52.704;6.398;2023-05-14T08:48:39;14.38;;;12.90;;
54897;SDS011;40800;52.704;6.398;2023-05-14T08:51:06;15.20;;;13.77;;
54897;SDS011;40800;52.704;6.398;2023-05-14T08:53:32;12.03;;;10.80;;
54897;SDS011;40800;52.704;6.398;2023-05-14T08:55:59;9.55;;;6.40;;
54897;SDS011;40800;52.704;6.398;2023-05-14T08:58:26;11.45;;;7.55;;
54897;SDS011;40800;52.704;6.398;2023-05-14T09:00:52;10.30;;;6.95;;
54897;SDS011;40800;52.704;6.398;2023-05-14T09:03:19;11.45;;;6.97;;
54897;SDS011;40800;52.704;6.398;2023-05-14T09:05:45;11.02;;;7.18;;
54897;SDS011;40800;52.704;6.398;2023-05-14T09:08:13;10.55;;;7.07;;
54897;SDS011;40800;52.704;6.398;2023-05-14T09:10:39;11.05;;;7.35;;
54897;SDS011;40800;52.704;6.398;2023-05-14T09:13:04;10.50;;;7.88;;
54897;SDS011;40800;52.704;6.398;2023-05-14T09:15:30;11.15;;;7.78;;
54897;SDS011;40800;52.704;6.398;2023-05-14T09:17:58;10.68;;;6.93;;
54897;SDS011;40800;52.704;6.398;2023-05-14T09:20:23;8.63;;;6.85;;
54897;SDS011;40800;52.704;6.398;2023-05-14T09:22:52;9.27;;;6.80;;
54897;SDS011;40800;52.704;6.398;2023-05-14T09:25:18;10.88;;;7.28;;
54897;SDS011;40800;52.704;6.398;2023-05-14T09:27:45;9.63;;;7.03;;
54897;SDS011;40800;52.704;6.398;2023-05-14T09:30:14;10.13;;;6.57;;
54897;SDS011;40800;52.704;6.398;2023-05-14T09:32:40;27.80;;;7.97;;
54897;SDS011;40800;52.704;6.398;2023-05-14T09:35:15;35.47;;;8.13;;
54897;SDS011;40800;52.704;6.398;2023-05-14T09:37:43;23.52;;;7.03;;
54897;SDS011;40800;52.704;6.398;2023-05-14T09:40:11;15.20;;;6.70;;
54897;SDS011;40800;52.704;6.398;2023-05-14T09:42:37;20.40;;;6.63;;
54897;SDS011;40800;52.704;6.398;2023-05-14T09:45:03;13.07;;;6.40;;
54897;SDS011;40800;52.704;6.398;2023-05-14T09:47:29;9.70;;;5.97;;
54897;SDS011;40800;52.704;6.398;2023-05-14T09:49:56;12.02;;;6.60;;
54897;SDS011;40800;52.704;6.398;2023-05-14T09:52:22;11.57;;;6.47;;
54897;SDS011;40800;52.704;6.398;2023-05-14T09:54:49;14.93;;;6.57;;
54897;SDS011;40800;52.704;6.398;2023-05-14T09:57:15;11.80;;;6.28;;
54897;SDS011;40800;52.704;6.398;2023-05-14T09:59:41;9.23;;;6.57;;
54897;SDS011;40800;52.704;6.398;2023-05-14T10:02:07;12.52;;;6.97;;
54897;SDS011;40800;52.704;6.398;2023-05-14T10:04:45;11.23;;;6.78;;
54897;SDS011;40800;52.704;6.398;2023-05-14T10:07:12;11.15;;;6.53;;
54897;SDS011;40800;52.704;6.398;2023-05-14T10:09:38;9.10;;;6.88;;
54897;SDS011;40800;52.704;6.398;2023-05-14T10:12:06;13.05;;;6.72;;
54897;SDS011;40800;52.704;6.398;2023-05-14T10:14:35;8.70;;;5.97;;
54897;SDS011;40800;52.704;6.398;2023-05-14T10:17:04;13.05;;;6.70;;
54897;SDS011;40800;52.704;6.398;2023-05-14T10:19:32;9.38;;;6.05;;
54897;SDS011;40800;52.704;6.398;2023-05-14T10:22:06;12.93;;;7.32;;
54897;SDS011;40800;52.704;6.398;2023-05-14T10:24:35;8.68;;;6.72;;
54897;SDS011;40800;52.704;6.398;2023-05-14T10:27:03;8.25;;;5.82;;
54897;SDS011;40800;52.704;6.398;2023-05-14T10:29:32;8.63;;;6.30;;
54897;SDS011;40800;52.704;6.398;2023-05-14T10:32:05;12.25;;;7.10;;
54897;SDS011;40800;52.704;6.398;2023-05-14T10:34:37;10.80;;;6.80;;
54897;SDS011;40800;52.704;6.398;2023-05-14T10:42:12;11.20;;;6.53;;
54897;SDS011;40800;52.704;6.398;2023-05-14T10:45:05;12.15;;;6.65;;
54897;SDS011;40800;52.704;6.398;2023-05-14T10:47:32;8.38;;;6.05;;
54897;SDS011;40800;52.704;6.398;2023-05-14T10:50:07;12.25;;;6.78;;
54897;SDS011;40800;52.704;6.398;2023-05-14T10:52:35;11.25;;;7.63;;
54897;SDS011;40800;52.704;6.398;2023-05-14T10:55:02;10.17;;;6.67;;
54897;SDS011;40800;52.704;6.398;2023-05-14T10:57:31;11.60;;;6.70;;
54897;SDS011;40800;52.704;6.398;2023-05-14T11:00:00;9.30;;;6.70;;
54897;SDS011;40800;52.704;6.398;2023-05-14T11:04:57;8.32;;;6.95;;
54897;SDS011;40800;52.704;6.398;2023-05-14T11:07:30;9.50;;;6.70;;
54897;SDS011;40800;52.704;6.398;2023-05-14T11:12:31;10.52;;;6.78;;
54897;SDS011;40800;52.704;6.398;2023-05-14T11:14:58;9.70;;;6.70;;
54897;SDS011;40800;52.704;6.398;2023-05-14T11:19:51;12.10;;;6.82;;
54897;SDS011;40800;52.704;6.398;2023-05-14T11:22:16;9.93;;;6.73;;
54897;SDS011;40800;52.704;6.398;2023-05-14T11:24:42;11.00;;;6.37;;
54897;SDS011;40800;52.704;6.398;2023-05-14T11:27:07;10.90;;;6.97;;
54897;SDS011;40800;52.704;6.398;2023-05-14T11:29:35;9.52;;;6.65;;
54897;SDS011;40800;52.704;6.398;2023-05-14T11:32:04;9.80;;;6.22;;
54897;SDS011;40800;52.704;6.398;2023-05-14T11:34:30;10.23;;;6.57;;
54897;SDS011;40800;52.704;6.398;2023-05-14T11:36:56;8.40;;;5.25;;
54897;SDS011;40800;52.704;6.398;2023-05-14T11:39:22;10.17;;;6.13;;
54897;SDS011;40800;52.704;6.398;2023-05-14T11:41:47;8.30;;;4.77;;
54897;SDS011;40800;52.704;6.398;2023-05-14T11:44:13;16.90;;;5.07;;
54897;SDS011;40800;52.704;6.398;2023-05-14T11:46:39;17.90;;;5.40;;
54897;SDS011;40800;52.704;6.398;2023-05-14T11:49:04;11.43;;;4.77;;
54897;SDS011;40800;52.704;6.398;2023-05-14T11:51:30;8.50;;;5.03;;
54897;SDS011;40800;52.704;6.398;2023-05-14T11:53:56;8.05;;;4.47;;
54897;SDS011;40800;52.704;6.398;2023-05-14T11:56:25;8.30;;;4.25;;
54897;SDS011;40800;52.704;6.398;2023-05-14T11:58:56;7.10;;;4.40;;
54897;SDS011;40800;52.704;6.398;2023-05-14T12:01:22;7.32;;;4.82;;
54897;SDS011;40800;52.704;6.398;2023-05-14T12:03:48;6.20;;;4.80;;
54897;SDS011;40800;52.704;6.398;2023-05-14T12:06:14;7.57;;;5.10;;
54897;SDS011;40800;52.704;6.398;2023-05-14T12:08:40;10.27;;;4.80;;
54897;SDS011;40800;52.704;6.398;2023-05-14T12:11:05;7.17;;;4.27;;
54897;SDS011;40800;52.704;6.398;2023-05-14T12:13:33;10.05;;;4.80;;
54897;SDS011;40800;52.704;6.398;2023-05-14T12:16:00;13.43;;;5.50;;
54897;SDS011;40800;52.704;6.398;2023-05-14T12:18:28;20.33;;;6.47;;
54897;SDS011;40800;52.704;6.398;2023-05-14T12:20:55;8.45;;;5.05;;
54897;SDS011;40800;52.704;6.398;2023-05-14T12:23:29;9.95;;;4.70;;
54897;SDS011;40800;52.704;6.398;2023-05-14T12:26:00;8.80;;;4.70;;
54897;SDS011;40800;52.704;6.398;2023-05-14T12:28:30;9.13;;;5.07;;
54897;SDS011;40800;52.704;6.398;2023-05-14T12:30:56;5.70;;;4.07;;
54897;SDS011;40800;52.704;6.398;2023-05-14T12:33:23;6.90;;;3.83;;
54897;SDS011;40800;52.704;6.398;2023-05-14T12:35:51;7.45;;;4.15;;
54897;SDS011;40800;52.704;6.398;2023-05-14T12:38:26;8.20;;;4.22;;
54897;SDS011;40800;52.704;6.398;2023-05-14T12:40:52;10.13;;;4.70;;
54897;SDS011;40800;52.704;6.398;2023-05-14T12:43:17;6.17;;;4.07;;
54897;SDS011;40800;52.704;6.398;2023-05-14T12:45:43;5.00;;;4.43;;
54897;SDS011;40800;52.704;6.398;2023-05-14T12:48:09;6.90;;;4.20;;
54897;SDS011;40800;52.704;6.398;2023-05-14T12:50:34;6.80;;;4.97;;
54897;SDS011;40800;52.704;6.398;2023-05-14T12:53:00;8.73;;;4.43;;
54897;SDS011;40800;52.704;6.398;2023-05-14T12:55:25;5.80;;;4.33;;
54897;SDS011;40800;52.704;6.398;2023-05-14T12:57:51;7.60;;;4.63;;
54897;SDS011;40800;52.704;6.398;2023-05-14T13:00:17;6.13;;;4.20;;
54897;SDS011;40800;52.704;6.398;2023-05-14T13:02:43;7.40;;;4.50;;
54897;SDS011;40800;52.704;6.398;2023-05-14T13:05:09;5.33;;;3.73;;
54897;SDS011;40800;52.704;6.398;2023-05-14T13:10:01;6.85;;;4.57;;
54897;SDS011;40800;52.704;6.398;2023-05-14T13:12:29;7.25;;;4.60;;
54897;SDS011;40800;52.704;6.398;2023-05-14T13:14:55;7.93;;;4.47;;
54897;SDS011;40800;52.704;6.398;2023-05-14T13:17:20;6.23;;;4.57;;
54897;SDS011;40800;52.704;6.398;2023-05-14T13:19:46;7.37;;;4.50;;
54897;SDS011;40800;52.704;6.398;2023-05-14T13:22:11;6.30;;;3.80;;
54897;SDS011;40800;52.704;6.398;2023-05-14T13:24:38;5.25;;;3.63;;
54897;SDS011;40800;52.704;6.398;2023-05-14T13:27:04;9.73;;;4.20;;
54897;SDS011;40800;52.704;6.398;2023-05-14T13:29:29;42.50;;;6.10;;
54897;SDS011;40800;52.704;6.398;2023-05-14T13:31:55;12.47;;;4.77;;
54897;SDS011;40800;52.704;6.398;2023-05-14T13:34:21;7.40;;;4.63;;
54897;SDS011;40800;52.704;6.398;2023-05-14T13:36:46;8.33;;;4.87;;
54897;SDS011;40800;52.704;6.398;2023-05-14T13:39:13;11.77;;;5.40;;
54897;SDS011;40800;52.704;6.398;2023-05-14T13:41:39;10.13;;;5.17;;
54897;SDS011;40800;52.704;6.398;2023-05-14T13:44:05;5.50;;;4.00;;
54897;SDS011;40800;52.704;6.398;2023-05-14T13:46:31;8.20;;;4.38;;
54897;SDS011;40800;52.704;6.398;2023-05-14T13:48:56;6.40;;;3.90;;
54897;SDS011;40800;52.704;6.398;2023-05-14T13:51:22;6.50;;;3.40;;
54897;SDS011;40800;52.704;6.398;2023-05-14T13:53:48;16.70;;;5.07;;
54897;SDS011;40800;52.704;6.398;2023-05-14T13:56:14;7.40;;;4.60;;
54897;SDS011;40800;52.704;6.398;2023-05-14T13:58:40;10.30;;;4.90;;
54897;SDS011;40800;52.704;6.398;2023-05-14T14:01:05;6.77;;;3.90;;
54897;SDS011;40800;52.704;6.398;2023-05-14T14:03:31;11.10;;;4.60;;
54897;SDS011;40800;52.704;6.398;2023-05-14T14:05:57;8.10;;;4.73;;
54897;SDS011;40800;52.704;6.398;2023-05-14T14:08:22;7.17;;;4.33;;
54897;SDS011;40800;52.704;6.398;2023-05-14T14:10:48;7.17;;;4.07;;
54897;SDS011;40800;52.704;6.398;2023-05-14T14:13:14;8.52;;;4.30;;
54897;SDS011;40800;52.704;6.398;2023-05-14T14:15:40;6.00;;;4.30;;
54897;SDS011;40800;52.704;6.398;2023-05-14T14:18:06;7.68;;;4.50;;
54897;SDS011;40800;52.704;6.398;2023-05-14T14:20:32;5.83;;;4.60;;
54897;SDS011;40800;52.704;6.398;2023-05-14T14:22:57;6.70;;;4.63;;
54897;SDS011;40800;52.704;6.398;2023-05-14T14:25:23;6.73;;;3.93;;
54897;SDS011;40800;52.704;6.398;2023-05-14T14:27:49;5.47;;;3.87;;
54897;SDS011;40800;52.704;6.398;2023-05-14T14:30:15;5.10;;;3.73;;
54897;SDS011;40800;52.704;6.398;2023-05-14T14:32:44;5.40;;;4.03;;
54897;SDS011;40800;52.704;6.398;2023-05-14T14:35:11;5.45;;;4.07;;
54897;SDS011;40800;52.704;6.398;2023-05-14T14:37:38;8.48;;;3.65;;
54897;SDS011;40800;52.704;6.398;2023-05-14T14:40:05;7.57;;;3.80;;
54897;SDS011;40800;52.704;6.398;2023-05-14T14:42:33;6.65;;;3.70;;
54897;SDS011;40800;52.704;6.398;2023-05-14T14:47:24;8.55;;;3.65;;
54897;SDS011;40800;52.704;6.398;2023-05-14T14:49:50;8.10;;;4.20;;